Stations météo

réclame
Mon MeteoGroup
Punta Galea Golf, Espagne (8059): Température de l'air & dewpoint: 13.10.2017 14:00:00 - 19.10.2017 14:00:00 (CEST)Punta Galea Golf, Espagne (8059): Vitesse du vent & gusts: 13.10.2017 14:00:00 - 19.10.2017 14:00:00 (CEST)Punta Galea Golf, Espagne (8059): Direction du vent: 13.10.2017 14:00:00 - 19.10.2017 14:00:00 (CEST)Punta Galea Golf, Espagne (8059): reduced air pressure: 13.10.2017 14:00:00 - 19.10.2017 14:00:00 (CEST)Punta Galea Golf, Espagne (8059): Quantités de précipitations: 13.10.2017 14:00:00 - 19.10.2017 14:00:00 (CEST)
Date & Time tt [°C] td [°C] ff [km/h] ff [knt] fx [km/h] fx [knt] dd ppp [hPa] rr [mm]
19.10.2017 14:00:00 19,4 12,2 8 5 21 11 S 1011,7 -
19.10.2017 13:00:00 18,5 11,1 8 5 17 9 SSE 1012,8 0,0
19.10.2017 12:00:00 16,5 13,3 8 5 15 8 SSE 1012,9 0,0
19.10.2017 11:00:00 14,6 13,4 9 5 15 8 SE 1012,7 0,0
19.10.2017 10:00:00 12,7 12,1 9 5 15 8 SSE 1012,8 0,0
19.10.2017 09:00:00 11,5 11,0 8 4 14 7 SSE 1012,3 0,0
19.10.2017 08:00:00 12,1 11,7 7 4 12 6 SSE 1012,2 -
19.10.2017 07:00:00 12,5 12,0 6 3 12 6 SSE 1011,9 0,0
19.10.2017 06:00:00 12,5 12,0 7 4 13 7 S 1011,7 0,3
19.10.2017 05:00:00 12,6 12,1 7 4 10 6 SSE 1012,2 0,2
19.10.2017 04:00:00 12,7 12,2 7 4 10 5 SSE 1012,1 0,0
19.10.2017 03:00:00 12,6 12,1 6 4 11 6 S 1011,9 0,0
19.10.2017 02:00:00 12,9 12,4 7 4 11 6 S 1012,0 -
19.10.2017 01:00:00 13,2 12,5 5 3 12 6 S 1011,9 0,3
19.10.2017 00:00:00 13,3 12,3 6 3 12 6 SW 1012,0 1,2
18.10.2017 23:00:00 13,7 12,7 6 3 14 8 W 1011,8 0,1
18.10.2017 22:00:00 13,6 13,0 8 4 20 11 W 1011,8 0,4
18.10.2017 21:00:00 13,7 13,3 8 4 22 12 W 1011,5 1,3
18.10.2017 20:00:00 13,8 13,4 10 5 23 12 W 1011,0 -
18.10.2017 19:00:00 14,1 13,5 13 7 34 18 WNW 1010,7 0,6
18.10.2017 18:00:00 15,4 14,1 13 7 29 16 WNW 1010,4 0,0
18.10.2017 17:00:00 15,3 14,1 3 2 10 6 SW 1010,3 0,0
18.10.2017 16:00:00 15,4 14,1 1 0 6 3 SSE 1010,6 0,0
18.10.2017 15:00:00 15,3 14,0 0 0 9 5 WSW 1010,2 0,6
18.10.2017 14:00:00 15,0 13,6 5 3 10 6 S 1010,8 -
18.10.2017 13:00:00 15,3 13,5 1 1 6 4 WSW 1011,0 0,9
18.10.2017 12:00:00 16,2 12,5 4 2 10 5 SSE 1011,0 0,1
18.10.2017 11:00:00 16,2 12,0 6 3 14 7 SSE 1011,0 0,0
18.10.2017 10:00:00 16,4 10,5 9 5 16 9 S 1011,1 0,0
18.10.2017 09:00:00 16,2 10,5 9 5 19 11 SSW 1011,1 0,0
18.10.2017 08:00:00 14,7 12,7 8 4 13 7 SSE 1011,3 -
18.10.2017 07:00:00 14,2 13,5 6 3 9 5 SSE 1011,8 0,0
18.10.2017 06:00:00 14,2 13,6 4 2 8 5 S 1012,4 0,0
18.10.2017 05:00:00 14,4 13,8 1 1 11 6 S 1012,8 0,0
18.10.2017 04:00:00 15,1 14,4 7 4 10 6 SSE 1013,2 0,0
18.10.2017 03:00:00 15,6 15,0 6 4 11 6 S 1013,6 0,0
18.10.2017 02:00:00 16,0 15,3 4 2 7 4 S 1013,9 -
18.10.2017 01:00:00 16,3 15,7 3 1 9 5 E 1014,6 0,3
18.10.2017 00:00:00 16,7 15,9 3 1 5 3 WSW 1015,5 0,0
17.10.2017 23:00:00 17,1 16,3 1 1 5 3 W 1015,7 0,0
17.10.2017 22:00:00 17,2 16,4 1 1 8 4 W 1015,6 0,0
17.10.2017 21:00:00 17,1 16,3 4 2 12 7 WNW 1015,7 0,0
17.10.2017 20:00:00 17,2 16,4 5 3 21 11 WNW 1015,9 -
17.10.2017 19:00:00 17,4 16,6 13 7 25 13 WNW 1015,6 0,4
17.10.2017 18:00:00 18,1 17,1 12 7 29 16 WNW 1015,3 0,0
17.10.2017 17:00:00 18,5 17,0 15 8 44 24 WNW 1015,2 0,0
17.10.2017 16:00:00 22,2 13,3 7 4 18 10 SE 1014,4 0,0
17.10.2017 15:00:00 22,7 13,0 9 5 23 12 SSE 1014,7 0,0
17.10.2017 14:00:00 23,8 12,1 10 6 22 12 S 1015,8 -
17.10.2017 13:00:00 23,6 13,8 6 3 22 12 S 1016,5 0,0
17.10.2017 12:00:00 22,7 13,8 11 6 29 16 S 1017,1 0,0
17.10.2017 11:00:00 20,8 13,5 16 9 30 16 SSE 1017,4 0,0
17.10.2017 10:00:00 19,3 13,1 14 7 25 14 SSE 1017,6 0,0
17.10.2017 09:00:00 18,6 12,3 13 7 27 14 SSE 1017,6 0,0
17.10.2017 08:00:00 18,8 12,5 12 7 31 17 S 1017,6 -
17.10.2017 07:00:00 18,5 13,6 13 7 26 14 S 1017,6 0,0
17.10.2017 06:00:00 16,8 13,8 10 5 18 10 S 1018,0 0,0
17.10.2017 05:00:00 15,6 14,6 9 5 17 9 S 1018,4 0,0
17.10.2017 04:00:00 14,5 13,9 7 4 13 7 S 1019,7 0,0
17.10.2017 03:00:00 14,8 14,1 5 3 9 5 S 1020,4 0,0
17.10.2017 02:00:00 14,9 14,1 0 0 8 4 N 1021,4 -
17.10.2017 01:00:00 15,5 14,7 3 2 6 3 SE 1022,4 0,0
17.10.2017 00:00:00 15,9 14,9 4 2 6 4 SE 1023,3 0,0
16.10.2017 23:00:00 16,4 15,4 5 3 10 5 E 1023,9 0,0
16.10.2017 22:00:00 17,3 16,1 6 3 11 6 E 1024,3 0,0
16.10.2017 21:00:00 17,8 16,8 2 1 8 4 ENE 1024,6 0,0
16.10.2017 20:00:00 18,3 17,0 1 1 7 4 N 1024,6 -
16.10.2017 19:00:00 19,0 17,5 2 1 11 6 N 1024,2 0,0
16.10.2017 18:00:00 19,7 17,9 4 2 11 6 NW 1024,1 0,0
16.10.2017 17:00:00 20,4 18,5 5 3 12 7 NNW 1023,9 0,0
16.10.2017 16:00:00 20,3 18,2 6 3 21 12 NW 1023,9 0,0
16.10.2017 15:00:00 20,6 18,2 9 5 27 15 WNW 1023,8 0,0
16.10.2017 14:00:00 20,1 17,7 16 9 34 19 WNW 1023,8 -
16.10.2017 13:00:00 21,0 17,2 21 12 40 21 WNW 1023,7 0,0
16.10.2017 12:00:00 24,5 13,9 9 5 39 21 SSE 1021,9 0,0
16.10.2017 11:00:00 23,0 13,8 18 10 51 27 S 1021,1 0,0
16.10.2017 10:00:00 22,0 13,4 20 11 39 21 S 1020,5 0,0
16.10.2017 09:00:00 21,6 13,0 17 9 45 24 S 1019,6 0,0
16.10.2017 08:00:00 21,7 13,1 21 11 49 27 SSE 1018,9 -
16.10.2017 07:00:00 22,6 13,1 28 15 46 25 S 1018,4 0,0
16.10.2017 06:00:00 22,0 13,7 21 11 37 20 S 1018,8 0,0
16.10.2017 05:00:00 22,5 13,6 19 10 39 21 S 1018,6 0,0
16.10.2017 04:00:00 22,9 13,9 22 12 41 22 S 1018,5 0,0
16.10.2017 03:00:00 22,6 14,1 14 8 29 16 S 1019,0 0,0
16.10.2017 02:00:00 21,8 14,7 10 5 23 12 S 1019,8 -
16.10.2017 01:00:00 21,8 14,2 13 7 24 13 S 1019,9 0,0
16.10.2017 00:00:00 22,3 14,1 12 7 34 18 S 1019,9 0,0
15.10.2017 23:00:00 22,5 13,6 12 7 26 14 S 1019,9 0,0
15.10.2017 22:00:00 23,2 13,7 15 8 28 15 S 1019,6 0,0
15.10.2017 21:00:00 24,0 13,6 12 7 27 14 SSE 1019,5 0,0
15.10.2017 20:00:00 24,9 13,5 14 7 25 14 SSE 1019,4 -
15.10.2017 19:00:00 25,6 14,0 8 4 20 11 SSE 1019,2 0,0
15.10.2017 18:00:00 27,2 14,6 11 6 26 14 SSE 1019,2 0,0
15.10.2017 17:00:00 27,5 15,2 14 8 29 15 SSE 1019,5 0,0
15.10.2017 16:00:00 27,3 15,6 16 8 32 18 SE 1019,9 0,0
15.10.2017 15:00:00 25,5 14,6 14 7 35 19 S 1020,5 0,0
15.10.2017 14:00:00 26,2 15,0 15 8 32 18 S 1021,1 -
15.10.2017 13:00:00 24,0 15,0 16 8 35 19 SSE 1021,7 0,0
15.10.2017 12:00:00 23,8 15,5 14 8 38 20 SSE 1022,0 0,0
15.10.2017 11:00:00 22,6 15,2 16 9 30 16 SSE 1022,1 0,0
15.10.2017 10:00:00 21,7 14,3 16 8 34 19 SSE 1021,9 0,0
15.10.2017 09:00:00 21,0 14,4 16 8 33 18 S 1021,5 0,0
15.10.2017 08:00:00 21,0 14,1 16 9 31 17 SSE 1021,2 -
15.10.2017 07:00:00 21,2 14,1 14 8 51 27 S 1021,4 0,0
15.10.2017 06:00:00 21,3 14,7 15 8 29 16 SSE 1021,2 0,0
15.10.2017 05:00:00 21,4 14,8 14 8 32 17 SSE 1020,9 0,0
15.10.2017 04:00:00 21,8 14,7 16 8 29 15 SSE 1021,3 0,0
15.10.2017 03:00:00 21,6 15,0 13 7 24 13 SSE 1021,5 0,0
15.10.2017 02:00:00 21,9 14,8 13 7 31 17 SSE 1021,8 -
15.10.2017 01:00:00 21,8 14,9 11 6 24 13 SSE 1021,9 0,0
15.10.2017 00:00:00 21,9 14,8 9 5 21 12 SSE 1021,9 0,0
14.10.2017 23:00:00 21,8 14,7 10 5 21 11 SSE 1021,8 0,0
14.10.2017 22:00:00 21,6 15,4 10 6 18 10 SSE 1021,9 0,0
14.10.2017 21:00:00 20,1 17,5 7 4 14 8 SSE 1021,8 0,0
14.10.2017 20:00:00 19,8 18,1 6 3 10 6 WSW 1021,5 -
14.10.2017 19:00:00 23,0 18,8 0 0 7 4 ENE 1020,8 0,0
14.10.2017 18:00:00 23,9 19,6 0 0 8 4 WNW 1020,7 0,0
14.10.2017 17:00:00 24,0 19,9 1 1 13 7 NW 1021,0 0,0
14.10.2017 16:00:00 24,5 17,9 3 2 14 8 WNW 1021,3 0,0
14.10.2017 15:00:00 26,9 15,3 4 2 15 8 SSW 1021,6 0,0
14.10.2017 14:00:00 26,0 17,6 5 3 14 7 SE 1022,7 -
14.10.2017 13:00:00 24,2 16,7 7 4 12 7 SE 1023,4 0,0
14.10.2017 12:00:00 22,0 18,0 7 4 14 8 SSE 1023,8 0,0
14.10.2017 11:00:00 19,1 17,1 5 3 13 7 E 1024,2 0,0
14.10.2017 10:00:00 16,5 15,9 1 1 9 5 SSE 1024,3 0,0
14.10.2017 09:00:00 15,2 14,5 3 2 8 5 SE 1024,4 0,0
14.10.2017 08:00:00 15,9 15,1 3 2 9 5 ESE 1024,6 -
14.10.2017 07:00:00 16,1 15,3 5 3 9 5 ESE 1024,8 0,0
14.10.2017 06:00:00 16,3 15,5 4 2 8 4 E 1025,2 0,0
14.10.2017 05:00:00 16,6 15,8 0 0 6 3 N 1025,2 0,0
14.10.2017 04:00:00 16,6 15,8 3 2 6 3 SE 1025,7 0,0
14.10.2017 03:00:00 16,7 15,9 3 2 5 3 SE 1026,0 0,0
14.10.2017 02:00:00 16,8 16,0 3 2 5 3 SE 1026,3 -
14.10.2017 01:00:00 17,2 16,2 4 2 10 5 W 1026,5 0,0
14.10.2017 00:00:00 17,0 16,0 6 3 14 7 W 1026,5 0,0
13.10.2017 23:00:00 16,9 16,0 6 4 19 10 W 1026,5 0,0
13.10.2017 22:00:00 17,0 15,9 12 7 22 12 WNW 1026,4 0,0
13.10.2017 21:00:00 17,3 16,1 9 5 20 11 WNW 1026,2 0,0
13.10.2017 20:00:00 17,5 16,2 12 6 19 11 WNW 1025,9 -
13.10.2017 19:00:00 17,7 16,4 10 5 21 11 WNW 1025,6 0,0
13.10.2017 18:00:00 18,3 17,0 11 6 21 11 WNW 1025,3 0,0
13.10.2017 17:00:00 18,5 17,4 9 5 21 11 WNW 1025,1 0,0
13.10.2017 16:00:00 18,3 17,1 10 6 20 11 NW 1025,0 0,0
13.10.2017 15:00:00 18,8 17,5 7 4 16 8 NW 1024,9 0,0
13.10.2017 14:00:00 18,8 17,5 7 4 15 8 NNW 1025,0 -

tt = Température de l'air
td = dewpoint
ff = Vitesse du vent
fx = gusts
dd = Direction du vent
ppp = reduced air pressure
rr = Quantités de précipitations

stations d'obs. à proximité